sensor_id;sensor_type;location;lat;lon;timestamp;pressure;altitude;pressure_sealevel;temperature;humidity
38466;BME280;24244;51.950;5.902;2023-02-04T00:00:03;103124.91;;;8.77;80.06
38466;BME280;24244;51.950;5.902;2023-02-04T00:02:32;103125.00;;;8.75;80.55
38466;BME280;24244;51.950;5.902;2023-02-04T00:05:01;103118.00;;;8.74;80.43
38466;BME280;24244;51.950;5.902;2023-02-04T00:07:28;103120.66;;;8.74;80.45
38466;BME280;24244;51.950;5.902;2023-02-04T00:09:55;103118.00;;;8.74;80.52
38466;BME280;24244;51.950;5.902;2023-02-04T00:12:23;103125.97;;;8.74;80.45
38466;BME280;24244;51.950;5.902;2023-02-04T00:14:50;103126.09;;;8.73;80.48
38466;BME280;24244;51.950;5.902;2023-02-04T00:17:18;103132.38;;;8.72;80.24
38466;BME280;24244;51.950;5.902;2023-02-04T00:19:45;103127.16;;;8.70;80.37
38466;BME280;24244;51.950;5.902;2023-02-04T00:22:12;103126.31;;;8.70;80.49
38466;BME280;24244;51.950;5.902;2023-02-04T00:24:39;103130.88;;;8.68;80.58
38466;BME280;24244;51.950;5.902;2023-02-04T00:27:06;103141.50;;;8.68;80.58
38466;BME280;24244;51.950;5.902;2023-02-04T00:29:37;103133.78;;;8.64;80.51
38466;BME280;24244;51.950;5.902;2023-02-04T00:32:05;103137.41;;;8.63;80.65
38466;BME280;24244;51.950;5.902;2023-02-04T00:34:32;103143.53;;;8.64;80.56
38466;BME280;24244;51.950;5.902;2023-02-04T00:36:59;103143.66;;;8.62;80.34
38466;BME280;24244;51.950;5.902;2023-02-04T00:39:26;103148.09;;;8.62;80.29
38466;BME280;24244;51.950;5.902;2023-02-04T00:41:53;103149.91;;;8.61;80.46
38466;BME280;24244;51.950;5.902;2023-02-04T00:44:20;103157.03;;;8.61;80.32
38466;BME280;24244;51.950;5.902;2023-02-04T00:46:49;103150.88;;;8.60;80.38
38466;BME280;24244;51.950;5.902;2023-02-04T00:49:16;103157.97;;;8.60;80.44
38466;BME280;24244;51.950;5.902;2023-02-04T00:51:43;103159.06;;;8.57;80.37
38466;BME280;24244;51.950;5.902;2023-02-04T00:54:12;103162.69;;;8.56;80.45
38466;BME280;24244;51.950;5.902;2023-02-04T00:56:40;103167.97;;;8.56;80.34
38466;BME280;24244;51.950;5.902;2023-02-04T00:59:07;103164.59;;;8.54;80.26
38466;BME280;24244;51.950;5.902;2023-02-04T01:01:34;103169.19;;;8.52;80.54
38466;BME280;24244;51.950;5.902;2023-02-04T01:04:03;103168.44;;;8.50;80.41
38466;BME280;24244;51.950;5.902;2023-02-04T01:06:30;103166.00;;;8.47;80.41
38466;BME280;24244;51.950;5.902;2023-02-04T01:08:58;103167.94;;;8.45;80.80
38466;BME280;24244;51.950;5.902;2023-02-04T01:11:25;103162.75;;;8.44;80.60
38466;BME280;24244;51.950;5.902;2023-02-04T01:13:52;103167.19;;;8.43;80.50
38466;BME280;24244;51.950;5.902;2023-02-04T01:16:19;103162.00;;;8.42;80.51
38466;BME280;24244;51.950;5.902;2023-02-04T01:18:46;103158.63;;;8.40;80.71
38466;BME280;24244;51.950;5.902;2023-02-04T01:21:14;103164.88;;;8.39;80.47
38466;BME280;24244;51.950;5.902;2023-02-04T01:23:41;103172.09;;;8.37;80.73
38466;BME280;24244;51.950;5.902;2023-02-04T01:26:08;103180.28;;;8.34;80.45
38466;BME280;24244;51.950;5.902;2023-02-04T01:28:35;103192.78;;;8.32;80.66
38466;BME280;24244;51.950;5.902;2023-02-04T01:31:02;103199.06;;;8.31;80.50
38466;BME280;24244;51.950;5.902;2023-02-04T01:33:29;103201.78;;;8.29;80.53
38466;BME280;24244;51.950;5.902;2023-02-04T01:35:58;103201.88;;;8.27;80.65
38466;BME280;24244;51.950;5.902;2023-02-04T01:38:26;103211.75;;;8.25;80.60
38466;BME280;24244;51.950;5.902;2023-02-04T01:40:53;103206.44;;;8.25;80.74
38466;BME280;24244;51.950;5.902;2023-02-04T01:43:20;103207.53;;;8.23;80.74
38466;BME280;24244;51.950;5.902;2023-02-04T01:45:48;103202.34;;;8.21;80.77
38466;BME280;24244;51.950;5.902;2023-02-04T01:48:18;103202.34;;;8.21;80.84
38466;BME280;24244;51.950;5.902;2023-02-04T01:50:46;103213.03;;;8.20;80.97
38466;BME280;24244;51.950;5.902;2023-02-04T01:53:15;103213.13;;;8.18;80.99
38466;BME280;24244;51.950;5.902;2023-02-04T01:55:45;103208.94;;;8.16;80.84
38466;BME280;24244;51.950;5.902;2023-02-04T01:58:13;103217.81;;;8.15;80.96
38466;BME280;24244;51.950;5.902;2023-02-04T02:00:41;103212.63;;;8.13;81.15
38466;BME280;24244;51.950;5.902;2023-02-04T02:03:08;103222.28;;;8.14;80.65
38466;BME280;24244;51.950;5.902;2023-02-04T02:05:39;103225.03;;;8.13;80.93
38466;BME280;24244;51.950;5.902;2023-02-04T02:08:07;103232.13;;;8.12;80.95
38466;BME280;24244;51.950;5.902;2023-02-04T02:10:36;103235.72;;;8.11;80.87
38466;BME280;24244;51.950;5.902;2023-02-04T02:13:06;103235.00;;;8.09;80.82
38466;BME280;24244;51.950;5.902;2023-02-04T02:15:34;103227.16;;;8.08;80.84
38466;BME280;24244;51.950;5.902;2023-02-04T02:18:02;103229.91;;;8.06;80.69
38466;BME280;24244;51.950;5.902;2023-02-04T02:20:28;103236.16;;;8.05;80.86
38466;BME280;24244;51.950;5.902;2023-02-04T02:23:01;103235.44;;;8.03;80.83
38466;BME280;24244;51.950;5.902;2023-02-04T02:25:32;103235.56;;;8.02;80.68
38466;BME280;24244;51.950;5.902;2023-02-04T02:28:10;103236.59;;;7.99;81.11
38466;BME280;24244;51.950;5.902;2023-02-04T02:30:38;103241.16;;;7.97;81.14
38466;BME280;24244;51.950;5.902;2023-02-04T02:33:06;103239.47;;;7.96;81.21
38466;BME280;24244;51.950;5.902;2023-02-04T02:35:33;103238.75;;;7.94;81.33
38466;BME280;24244;51.950;5.902;2023-02-04T02:38:00;103239.69;;;7.93;81.18
38466;BME280;24244;51.950;5.902;2023-02-04T02:40:27;103243.50;;;7.89;81.26
38466;BME280;24244;51.950;5.902;2023-02-04T02:42:55;103248.78;;;7.89;81.01
38466;BME280;24244;51.950;5.902;2023-02-04T02:45:23;103244.69;;;7.85;81.19
38466;BME280;24244;51.950;5.902;2023-02-04T02:47:51;103240.44;;;7.82;81.13
38466;BME280;24244;51.950;5.902;2023-02-04T02:50:20;103243.41;;;7.78;81.26
38466;BME280;24244;51.950;5.902;2023-02-04T02:52:49;103247.00;;;7.77;81.14
38466;BME280;24244;51.950;5.902;2023-02-04T02:55:18;103250.84;;;7.73;80.98
38466;BME280;24244;51.950;5.902;2023-02-04T02:57:46;103251.03;;;7.70;81.20
38466;BME280;24244;51.950;5.902;2023-02-04T03:00:18;103251.28;;;7.67;81.37
38466;BME280;24244;51.950;5.902;2023-02-04T03:02:50;103254.88;;;7.66;80.98
38466;BME280;24244;51.950;5.902;2023-02-04T03:05:19;103259.41;;;7.64;81.29
38466;BME280;24244;51.950;5.902;2023-02-04T03:07:46;103257.94;;;7.60;81.30
38466;BME280;24244;51.950;5.902;2023-02-04T03:10:15;103258.13;;;7.57;81.36
38466;BME280;24244;51.950;5.902;2023-02-04T03:12:41;103264.47;;;7.54;81.38
38466;BME280;24244;51.950;5.902;2023-02-04T03:15:08;103265.56;;;7.52;81.48
38466;BME280;24244;51.950;5.902;2023-02-04T03:17:37;103271.13;;;7.47;81.36
38466;BME280;24244;51.950;5.902;2023-02-04T03:20:05;103268.91;;;7.41;81.21
38466;BME280;24244;51.950;5.902;2023-02-04T03:22:32;103277.06;;;7.38;81.46
38466;BME280;24244;51.950;5.902;2023-02-04T03:24:59;103275.56;;;7.34;81.50
38466;BME280;24244;51.950;5.902;2023-02-04T03:27:27;103281.28;;;7.28;81.19
38466;BME280;24244;51.950;5.902;2023-02-04T03:29:54;103289.53;;;7.23;81.66
38466;BME280;24244;51.950;5.902;2023-02-04T03:32:21;103303.91;;;7.19;81.73
38466;BME280;24244;51.950;5.902;2023-02-04T03:34:49;103298.84;;;7.16;81.69
38466;BME280;24244;51.950;5.902;2023-02-04T03:37:16;103304.31;;;7.13;81.63
38466;BME280;24244;51.950;5.902;2023-02-04T03:39:42;103306.19;;;7.11;81.79
38466;BME280;24244;51.950;5.902;2023-02-04T03:42:09;103296.69;;;7.08;81.66
38466;BME280;24244;51.950;5.902;2023-02-04T03:44:36;103301.31;;;7.05;81.57
38466;BME280;24244;51.950;5.902;2023-02-04T03:47:03;103291.81;;;7.02;81.80
38466;BME280;24244;51.950;5.902;2023-02-04T03:49:29;103292.84;;;7.00;81.63
38466;BME280;24244;51.950;5.902;2023-02-04T03:51:59;103293.03;;;6.97;81.70
38466;BME280;24244;51.950;5.902;2023-02-04T03:54:25;103287.13;;;6.93;81.66
38466;BME280;24244;51.950;5.902;2023-02-04T03:56:52;103287.44;;;6.89;81.56
38466;BME280;24244;51.950;5.902;2023-02-04T03:59:19;103284.97;;;6.86;81.79
38466;BME280;24244;51.950;5.902;2023-02-04T04:01:46;103284.22;;;6.84;81.63
38466;BME280;24244;51.950;5.902;2023-02-04T04:04:13;103291.50;;;6.80;81.76
38466;BME280;24244;51.950;5.902;2023-02-04T04:06:40;103294.56;;;6.74;81.72
38466;BME280;24244;51.950;5.902;2023-02-04T04:09:08;103285.97;;;6.71;81.43
38466;BME280;24244;51.950;5.902;2023-02-04T04:11:34;103292.59;;;6.63;81.71
38466;BME280;24244;51.950;5.902;2023-02-04T04:14:01;103298.91;;;6.61;81.91
38466;BME280;24244;51.950;5.902;2023-02-04T04:16:28;103304.31;;;6.59;81.99
38466;BME280;24244;51.950;5.902;2023-02-04T04:18:55;103300.16;;;6.55;81.73
38466;BME280;24244;51.950;5.902;2023-02-04T04:21:21;103307.34;;;6.53;82.03
38466;BME280;24244;51.950;5.902;2023-02-04T04:23:48;103313.66;;;6.51;81.93
38466;BME280;24244;51.950;5.902;2023-02-04T04:26:16;103314.59;;;6.50;81.89
38466;BME280;24244;51.950;5.902;2023-02-04T04:28:43;103313.00;;;6.47;81.73
38466;BME280;24244;51.950;5.902;2023-02-04T04:31:10;103314.91;;;6.45;82.00
38466;BME280;24244;51.950;5.902;2023-02-04T04:33:37;103314.78;;;6.47;82.12
38466;BME280;24244;51.950;5.902;2023-02-04T04:36:06;103312.28;;;6.45;81.87
38466;BME280;24244;51.950;5.902;2023-02-04T04:38:32;103318.69;;;6.41;81.88
38466;BME280;24244;51.950;5.902;2023-02-04T04:40:59;103311.91;;;6.37;81.75
38466;BME280;24244;51.950;5.902;2023-02-04T04:43:27;103315.66;;;6.33;81.94
38466;BME280;24244;51.950;5.902;2023-02-04T04:45:54;103321.16;;;6.30;81.99
38466;BME280;24244;51.950;5.902;2023-02-04T04:48:21;103328.41;;;6.26;81.99
38466;BME280;24244;51.950;5.902;2023-02-04T04:50:48;103327.00;;;6.21;81.78
38466;BME280;24244;51.950;5.902;2023-02-04T04:53:15;103333.44;;;6.17;82.00
38466;BME280;24244;51.950;5.902;2023-02-04T04:55:43;103334.44;;;6.14;81.92
38466;BME280;24244;51.950;5.902;2023-02-04T04:58:10;103336.44;;;6.11;82.10
38466;BME280;24244;51.950;5.902;2023-02-04T05:00:38;103329.56;;;6.08;82.22
38466;BME280;24244;51.950;5.902;2023-02-04T05:03:05;103341.13;;;6.06;82.08
38466;BME280;24244;51.950;5.902;2023-02-04T05:05:32;103339.56;;;6.03;82.22
38466;BME280;24244;51.950;5.902;2023-02-04T05:07:59;103331.63;;;6.03;82.14
38466;BME280;24244;51.950;5.902;2023-02-04T05:10:26;103341.34;;;6.03;82.11
38466;BME280;24244;51.950;5.902;2023-02-04T05:12:53;103338.78;;;6.01;82.32
38466;BME280;24244;51.950;5.902;2023-02-04T05:15:20;103347.72;;;5.99;82.14
38466;BME280;24244;51.950;5.902;2023-02-04T05:17:48;103344.25;;;5.98;82.29
38466;BME280;24244;51.950;5.902;2023-02-04T05:20:15;103353.78;;;6.01;82.50
38466;BME280;24244;51.950;5.902;2023-02-04T05:22:41;103347.56;;;6.02;82.35
38466;BME280;24244;51.950;5.902;2023-02-04T05:25:08;103355.28;;;6.05;82.34
38466;BME280;24244;51.950;5.902;2023-02-04T05:27:35;103356.81;;;6.09;82.39
38466;BME280;24244;51.950;5.902;2023-02-04T05:30:02;103354.16;;;6.09;82.25
38466;BME280;24244;51.950;5.902;2023-02-04T05:32:29;103355.88;;;6.10;82.36
38466;BME280;24244;51.950;5.902;2023-02-04T05:34:57;103352.28;;;6.11;82.50
38466;BME280;24244;51.950;5.902;2023-02-04T05:37:24;103350.38;;;6.13;82.59
38466;BME280;24244;51.950;5.902;2023-02-04T05:39:51;103344.06;;;6.15;82.65
38466;BME280;24244;51.950;5.902;2023-02-04T05:42:17;103347.47;;;6.17;82.74
38466;BME280;24244;51.950;5.902;2023-02-04T05:44:44;103359.53;;;6.21;82.81
38466;BME280;24244;51.950;5.902;2023-02-04T05:47:11;103357.56;;;6.25;82.81
38466;BME280;24244;51.950;5.902;2023-02-04T05:49:38;103363.59;;;6.27;82.55
38466;BME280;24244;51.950;5.902;2023-02-04T05:52:06;103365.19;;;6.29;82.64
38466;BME280;24244;51.950;5.902;2023-02-04T05:54:32;103365.97;;;6.32;82.55
38466;BME280;24244;51.950;5.902;2023-02-04T05:56:59;103371.03;;;6.35;82.87
38466;BME280;24244;51.950;5.902;2023-02-04T05:59:26;103370.09;;;6.36;82.80
38466;BME280;24244;51.950;5.902;2023-02-04T06:01:53;103365.59;;;6.38;82.97
38466;BME280;24244;51.950;5.902;2023-02-04T06:04:20;103373.41;;;6.39;82.71
38466;BME280;24244;51.950;5.902;2023-02-04T06:06:46;103369.06;;;6.38;82.78
38466;BME280;24244;51.950;5.902;2023-02-04T06:09:15;103368.13;;;6.39;82.92
38466;BME280;24244;51.950;5.902;2023-02-04T06:11:41;103371.50;;;6.41;82.89
38466;BME280;24244;51.950;5.902;2023-02-04T06:14:08;103371.41;;;6.43;83.01
38466;BME280;24244;51.950;5.902;2023-02-04T06:16:36;103374.81;;;6.45;83.11
38466;BME280;24244;51.950;5.902;2023-02-04T06:19:03;103374.75;;;6.46;83.24
38466;BME280;24244;51.950;5.902;2023-02-04T06:21:29;103379.91;;;6.48;83.11
38466;BME280;24244;51.950;5.902;2023-02-04T06:23:56;103378.03;;;6.50;83.01
38466;BME280;24244;51.950;5.902;2023-02-04T06:26:24;103380.56;;;6.51;83.11
38466;BME280;24244;51.950;5.902;2023-02-04T06:28:51;103385.78;;;6.53;83.25
38466;BME280;24244;51.950;5.902;2023-02-04T06:31:18;103381.22;;;6.55;83.45
38466;BME280;24244;51.950;5.902;2023-02-04T06:33:45;103391.69;;;6.56;83.11
38466;BME280;24244;51.950;5.902;2023-02-04T06:36:12;103390.75;;;6.57;83.15
38466;BME280;24244;51.950;5.902;2023-02-04T06:38:38;103393.22;;;6.60;83.25
38466;BME280;24244;51.950;5.902;2023-02-04T06:41:05;103401.97;;;6.61;83.23
38466;BME280;24244;51.950;5.902;2023-02-04T06:43:33;103401.88;;;6.62;83.17
38466;BME280;24244;51.950;5.902;2023-02-04T06:46:00;103398.31;;;6.63;83.24
38466;BME280;24244;51.950;5.902;2023-02-04T06:48:27;103409.63;;;6.65;83.22
38466;BME280;24244;51.950;5.902;2023-02-04T06:50:56;103413.13;;;6.66;83.17
38466;BME280;24244;51.950;5.902;2023-02-04T06:53:23;103419.25;;;6.66;83.29
38466;BME280;24244;51.950;5.902;2023-02-04T06:55:50;103421.78;;;6.68;83.26
38466;BME280;24244;51.950;5.902;2023-02-04T06:58:18;103421.69;;;6.69;83.13
38466;BME280;24244;51.950;5.902;2023-02-04T07:00:46;103428.69;;;6.71;83.44
38466;BME280;24244;51.950;5.902;2023-02-04T07:03:13;103426.91;;;6.71;83.31
38466;BME280;24244;51.950;5.902;2023-02-04T07:05:39;103432.09;;;6.73;83.33
38466;BME280;24244;51.950;5.902;2023-02-04T07:08:06;103432.94;;;6.73;83.37
38466;BME280;24244;51.950;5.902;2023-02-04T07:10:33;103445.22;;;6.74;83.48
38466;BME280;24244;51.950;5.902;2023-02-04T07:13:00;103447.75;;;6.76;83.35
38466;BME280;24244;51.950;5.902;2023-02-04T07:15:27;103451.16;;;6.78;83.38
38466;BME280;24244;51.950;5.902;2023-02-04T07:17:55;103443.22;;;6.78;83.40
38466;BME280;24244;51.950;5.902;2023-02-04T07:20:22;103442.28;;;6.79;83.33
38466;BME280;24244;51.950;5.902;2023-02-04T07:22:49;103451.91;;;6.80;83.43
38466;BME280;24244;51.950;5.902;2023-02-04T07:25:16;103454.56;;;6.80;83.38
38466;BME280;24244;51.950;5.902;2023-02-04T07:27:43;103465.22;;;6.78;83.03
38466;BME280;24244;51.950;5.902;2023-02-04T07:30:11;103460.78;;;6.79;83.61
38466;BME280;24244;51.950;5.902;2023-02-04T07:32:38;103459.94;;;6.78;83.45
38466;BME280;24244;51.950;5.902;2023-02-04T07:35:07;103462.50;;;6.80;83.78
38466;BME280;24244;51.950;5.902;2023-02-04T07:37:36;103460.69;;;6.80;83.74
38466;BME280;24244;51.950;5.902;2023-02-04T07:40:03;103465.91;;;6.82;83.80
38466;BME280;24244;51.950;5.902;2023-02-04T07:42:30;103477.28;;;6.82;83.75
38466;BME280;24244;51.950;5.902;2023-02-04T07:44:57;103482.47;;;6.84;83.73
38466;BME280;24244;51.950;5.902;2023-02-04T07:47:23;103480.59;;;6.86;83.78
38466;BME280;24244;51.950;5.902;2023-02-04T07:49:50;103490.25;;;6.87;83.73
38466;BME280;24244;51.950;5.902;2023-02-04T07:52:18;103483.16;;;6.87;83.78
38466;BME280;24244;51.950;5.902;2023-02-04T07:54:45;103493.53;;;6.90;83.89
38466;BME280;24244;51.950;5.902;2023-02-04T07:57:12;103504.00;;;6.92;83.65
38466;BME280;24244;51.950;5.902;2023-02-04T07:59:38;103499.50;;;6.94;83.77
38466;BME280;24244;51.950;5.902;2023-02-04T08:02:05;103506.56;;;6.93;83.60
38466;BME280;24244;51.950;5.902;2023-02-04T08:04:32;103508.19;;;6.96;83.81
38466;BME280;24244;51.950;5.902;2023-02-04T08:06:59;103518.63;;;6.97;83.58
38466;BME280;24244;51.950;5.902;2023-02-04T08:09:27;103522.91;;;7.00;83.82
38466;BME280;24244;51.950;5.902;2023-02-04T08:11:54;103525.47;;;7.01;83.85
38466;BME280;24244;51.950;5.902;2023-02-04T08:14:20;103520.91;;;7.03;83.87
38466;BME280;24244;51.950;5.902;2023-02-04T08:16:50;103525.16;;;7.06;83.86
38466;BME280;24244;51.950;5.902;2023-02-04T08:19:17;103525.06;;;7.07;83.93
38466;BME280;24244;51.950;5.902;2023-02-04T08:21:47;103537.28;;;7.10;83.87
38466;BME280;24244;51.950;5.902;2023-02-04T08:24:15;103532.72;;;7.12;83.86
38466;BME280;24244;51.950;5.902;2023-02-04T08:26:43;103535.19;;;7.15;83.87
38466;BME280;24244;51.950;5.902;2023-02-04T08:29:10;103537.63;;;7.18;83.81
38466;BME280;24244;51.950;5.902;2023-02-04T08:31:37;103532.16;;;7.21;83.82
38466;BME280;24244;51.950;5.902;2023-02-04T08:34:04;103539.91;;;7.24;83.84
38466;BME280;24244;51.950;5.902;2023-02-04T08:36:32;103539.69;;;7.27;83.89
38466;BME280;24244;51.950;5.902;2023-02-04T08:38:59;103543.94;;;7.30;83.75
38466;BME280;24244;51.950;5.902;2023-02-04T08:41:26;103539.28;;;7.33;83.77
38466;BME280;24244;51.950;5.902;2023-02-04T08:43:54;103552.44;;;7.35;83.67
38466;BME280;24244;51.950;5.902;2023-02-04T08:46:20;103545.16;;;7.38;83.68
38466;BME280;24244;51.950;5.902;2023-02-04T08:48:47;103549.41;;;7.41;83.76
38466;BME280;24244;51.950;5.902;2023-02-04T08:51:14;103543.06;;;7.43;83.76
38466;BME280;24244;51.950;5.902;2023-02-04T08:53:42;103549.13;;;7.45;83.76
38466;BME280;24244;51.950;5.902;2023-02-04T08:56:09;103550.72;;;7.48;83.66
38466;BME280;24244;51.950;5.902;2023-02-04T08:58:35;103555.81;;;7.51;83.72
38466;BME280;24244;51.950;5.902;2023-02-04T09:01:03;103556.47;;;7.55;83.67
38466;BME280;24244;51.950;5.902;2023-02-04T09:03:32;103550.13;;;7.57;83.74
38466;BME280;24244;51.950;5.902;2023-02-04T09:05:59;103551.63;;;7.61;83.62
38466;BME280;24244;51.950;5.902;2023-02-04T09:08:26;103549.72;;;7.63;83.72
38466;BME280;24244;51.950;5.902;2023-02-04T09:10:52;103548.69;;;7.66;83.74
38466;BME280;24244;51.950;5.902;2023-02-04T09:13:19;103544.13;;;7.68;83.57
38466;BME280;24244;51.950;5.902;2023-02-04T09:15:46;103555.38;;;7.71;83.47
38466;BME280;24244;51.950;5.902;2023-02-04T09:18:14;103550.72;;;7.75;83.69
38466;BME280;24244;51.950;5.902;2023-02-04T09:20:47;103558.47;;;7.78;83.72
38466;BME280;24244;51.950;5.902;2023-02-04T09:23:15;103558.19;;;7.82;83.91
38466;BME280;24244;51.950;5.902;2023-02-04T09:25:43;103559.88;;;7.83;84.29
38466;BME280;24244;51.950;5.902;2023-02-04T09:28:11;103566.56;;;7.89;84.18
38466;BME280;24244;51.950;5.902;2023-02-04T09:30:39;103568.09;;;7.93;83.97
38466;BME280;24244;51.950;5.902;2023-02-04T09:33:07;103566.91;;;7.97;84.10
38466;BME280;24244;51.950;5.902;2023-02-04T09:35:35;103559.72;;;7.99;84.13
38466;BME280;24244;51.950;5.902;2023-02-04T09:38:03;103564.84;;;8.02;84.00
38466;BME280;24244;51.950;5.902;2023-02-04T09:40:32;103563.78;;;8.05;84.04
38466;BME280;24244;51.950;5.902;2023-02-04T09:43:01;103566.22;;;8.08;84.26
38466;BME280;24244;51.950;5.902;2023-02-04T09:45:29;103565.16;;;8.10;83.98
38466;BME280;24244;51.950;5.902;2023-02-04T09:48:00;103562.31;;;8.13;84.09
38466;BME280;24244;51.950;5.902;2023-02-04T09:50:29;103565.72;;;8.15;83.88
38466;BME280;24244;51.950;5.902;2023-02-04T09:53:03;103562.97;;;8.17;84.06
38466;BME280;24244;51.950;5.902;2023-02-04T09:55:39;103571.66;;;8.19;83.84
38466;BME280;24244;51.950;5.902;2023-02-04T09:58:13;103574.22;;;8.20;83.96
38466;BME280;24244;51.950;5.902;2023-02-04T10:00:42;103578.47;;;8.23;84.15
38466;BME280;24244;51.950;5.902;2023-02-04T10:03:13;103584.50;;;8.25;84.24
38466;BME280;24244;51.950;5.902;2023-02-04T10:05:41;103583.34;;;8.29;84.25
38466;BME280;24244;51.950;5.902;2023-02-04T10:08:12;103586.66;;;8.33;83.82
38466;BME280;24244;51.950;5.902;2023-02-04T10:10:40;103585.53;;;8.37;83.96
38466;BME280;24244;51.950;5.902;2023-02-04T10:13:12;103587.88;;;8.41;83.75
38466;BME280;24244;51.950;5.902;2023-02-04T10:15:40;103578.88;;;8.44;83.55
38466;BME280;24244;51.950;5.902;2023-02-04T10:18:07;103584.69;;;8.49;83.66
38466;BME280;24244;51.950;5.902;2023-02-04T10:20:38;103595.97;;;8.52;83.78
38466;BME280;24244;51.950;5.902;2023-02-04T10:23:08;103587.69;;;8.57;83.68
38466;BME280;24244;51.950;5.902;2023-02-04T10:25:39;103588.31;;;8.60;83.58
38466;BME280;24244;51.950;5.902;2023-02-04T10:28:06;103597.78;;;8.64;83.62
38466;BME280;24244;51.950;5.902;2023-02-04T10:30:38;103596.59;;;8.69;83.22
38466;BME280;24244;51.950;5.902;2023-02-04T10:33:14;103592.81;;;8.73;83.37
38466;BME280;24244;51.950;5.902;2023-02-04T10:35:46;103575.81;;;8.75;83.31
38466;BME280;24244;51.950;5.902;2023-02-04T10:38:13;103587.06;;;8.79;83.05
38466;BME280;24244;51.950;5.902;2023-02-04T10:40:41;103591.28;;;8.81;83.21
38466;BME280;24244;51.950;5.902;2023-02-04T10:43:09;103594.59;;;8.85;83.23
38466;BME280;24244;51.950;5.902;2023-02-04T10:45:37;103588.25;;;8.87;82.89
38466;BME280;24244;51.950;5.902;2023-02-04T10:48:04;103600.34;;;8.91;82.98
38466;BME280;24244;51.950;5.902;2023-02-04T10:50:31;103597.47;;;8.94;82.92
38466;BME280;24244;51.950;5.902;2023-02-04T10:52:59;103598.09;;;8.98;82.99
38466;BME280;24244;51.950;5.902;2023-02-04T10:55:47;103598.75;;;9.01;82.72
38466;BME280;24244;51.950;5.902;2023-02-04T10:58:18;103603.81;;;9.04;82.66
38466;BME280;24244;51.950;5.902;2023-02-04T11:00:46;103596.53;;;9.08;82.74
38466;BME280;24244;51.950;5.902;2023-02-04T11:03:17;103598.22;;;9.09;82.47
38466;BME280;24244;51.950;5.902;2023-02-04T11:05:47;103603.19;;;9.14;82.46
38466;BME280;24244;51.950;5.902;2023-02-04T11:08:19;103598.50;;;9.17;82.44
38466;BME280;24244;51.950;5.902;2023-02-04T11:10:54;103589.41;;;9.21;82.52
38466;BME280;24244;51.950;5.902;2023-02-04T11:13:23;103594.47;;;9.24;82.56
38466;BME280;24244;51.950;5.902;2023-02-04T11:16:05;103596.91;;;9.27;82.40
38466;BME280;24244;51.950;5.902;2023-02-04T11:18:43;103587.06;;;9.29;82.14
38466;BME280;24244;51.950;5.902;2023-02-04T11:21:13;103593.06;;;9.31;82.07
38466;BME280;24244;51.950;5.902;2023-02-04T11:23:41;103593.94;;;9.32;81.77
38466;BME280;24244;51.950;5.902;2023-02-04T11:26:12;103595.53;;;9.34;81.85
38466;BME280;24244;51.950;5.902;2023-02-04T11:28:45;103593.63;;;9.36;81.80
38466;BME280;24244;51.950;5.902;2023-02-04T11:31:25;103593.28;;;9.41;81.79
38466;BME280;24244;51.950;5.902;2023-02-04T11:34:07;103595.94;;;9.41;81.74
38466;BME280;24244;51.950;5.902;2023-02-04T11:36:48;103593.94;;;9.45;81.45
38466;BME280;24244;51.950;5.902;2023-02-04T11:39:15;103590.09;;;9.49;81.33
38466;BME280;24244;51.950;5.902;2023-02-04T11:41:45;103591.69;;;9.51;81.56
38466;BME280;24244;51.950;5.902;2023-02-04T11:44:13;103596.66;;;9.56;81.29
38466;BME280;24244;51.950;5.902;2023-02-04T11:46:40;103593.91;;;9.57;81.20
38466;BME280;24244;51.950;5.902;2023-02-04T11:49:13;103597.25;;;9.59;81.28
38466;BME280;24244;51.950;5.902;2023-02-04T11:51:42;103590.91;;;9.62;81.14
38466;BME280;24244;51.950;5.902;2023-02-04T11:54:12;103593.34;;;9.65;80.82
38466;BME280;24244;51.950;5.902;2023-02-04T11:56:39;103597.69;;;9.66;80.89
38466;BME280;24244;51.950;5.902;2023-02-04T11:59:08;103595.75;;;9.68;80.99
38466;BME280;24244;51.950;5.902;2023-02-04T12:01:39;103600.13;;;9.69;81.04
38466;BME280;24244;51.950;5.902;2023-02-04T12:04:18;103591.00;;;9.73;81.09
38466;BME280;24244;51.950;5.902;2023-02-04T12:06:58;103596.16;;;9.74;80.71
38466;BME280;24244;51.950;5.902;2023-02-04T12:09:29;103593.41;;;9.76;80.67
38466;BME280;24244;51.950;5.902;2023-02-04T12:11:58;103591.50;;;9.78;80.86
38466;BME280;24244;51.950;5.902;2023-02-04T12:14:31;103587.88;;;9.79;80.46
38466;BME280;24244;51.950;5.902;2023-02-04T12:16:59;103593.91;;;9.81;80.80
38466;BME280;24244;51.950;5.902;2023-02-04T12:19:26;103590.28;;;9.82;80.60
38466;BME280;24244;51.950;5.902;2023-02-04T12:21:53;103595.41;;;9.85;80.85
38466;BME280;24244;51.950;5.902;2023-02-04T12:24:21;103593.59;;;9.86;80.86
38466;BME280;24244;51.950;5.902;2023-02-04T12:26:48;103596.25;;;9.86;80.78
38466;BME280;24244;51.950;5.902;2023-02-04T12:29:14;103595.16;;;9.88;80.78
38466;BME280;24244;51.950;5.902;2023-02-04T12:31:42;103594.94;;;9.91;80.56
38466;BME280;24244;51.950;5.902;2023-02-04T12:34:09;103599.31;;;9.92;80.64
38466;BME280;24244;51.950;5.902;2023-02-04T12:36:36;103589.53;;;9.93;80.89
38466;BME280;24244;51.950;5.902;2023-02-04T12:39:03;103591.09;;;9.95;80.49
38466;BME280;24244;51.950;5.902;2023-02-04T12:41:30;103580.34;;;9.97;80.36
38466;BME280;24244;51.950;5.902;2023-02-04T12:43:57;103588.22;;;9.98;80.72
38466;BME280;24244;51.950;5.902;2023-02-04T12:46:25;103589.91;;;9.99;80.25
38466;BME280;24244;51.950;5.902;2023-02-04T12:48:54;103584.38;;;10.02;80.19
38466;BME280;24244;51.950;5.902;2023-02-04T12:51:21;103587.75;;;10.04;79.96
38466;BME280;24244;51.950;5.902;2023-02-04T12:53:48;103595.72;;;10.04;80.23
38466;BME280;24244;51.950;5.902;2023-02-04T12:56:15;103589.34;;;10.07;79.93
38466;BME280;24244;51.950;5.902;2023-02-04T12:58:42;103591.91;;;10.08;79.92
38466;BME280;24244;51.950;5.902;2023-02-04T13:01:08;103590.91;;;10.09;79.95
38466;BME280;24244;51.950;5.902;2023-02-04T13:03:35;103587.31;;;10.10;79.99